Kovar, Texas
Current Conditions -  °F | °C
As of 3:55 PM on Saturday 25 Oct 2014 (Local Time) from K3T5 Reporting Station
Clear Clear  
Wind Chill: 87°   Ceiling: Unl
Heat Index: 87°   Visibility: 10mi
Dew Point: 63°   Wind: 6mph
Humidity: 45%   Direction: 120°ESE
Pressure: 30.08"   Gusts: NA
Location:  29.7626°N, 97.1228°W
Report Text: K3T5 252055Z AUTO 12005KT 10SM CLR 30/17 A3008 RMK AO2 T03030170
Loading
Personal Weather Stations






























Interactive Weather Map
Tropical Storm Tracking
New forecast layout! Learn more

10-Day Weather Forecast

Advertisements
Track Severe Weather on mobile